sensor_id;sensor_type;location;lat;lon;timestamp;P1;durP1;ratioP1;P2;durP2;ratioP2
7142;SDS011;3613;48.902;9.204;2024-01-15T00:01:46;20.47;;;9.13;;
7142;SDS011;3613;48.902;9.204;2024-01-15T00:04:11;19.10;;;8.80;;
7142;SDS011;3613;48.902;9.204;2024-01-15T00:06:37;21.97;;;9.40;;
7142;SDS011;3613;48.902;9.204;2024-01-15T00:09:02;23.17;;;8.80;;
7142;SDS011;3613;48.902;9.204;2024-01-15T00:11:30;21.53;;;9.47;;
7142;SDS011;3613;48.902;9.204;2024-01-15T00:13:56;20.77;;;9.57;;
7142;SDS011;3613;48.902;9.204;2024-01-15T00:16:21;22.93;;;8.30;;
7142;SDS011;3613;48.902;9.204;2024-01-15T00:18:49;20.45;;;9.73;;
7142;SDS011;3613;48.902;9.204;2024-01-15T00:21:17;21.70;;;9.83;;
7142;SDS011;3613;48.902;9.204;2024-01-15T00:23:43;16.38;;;8.80;;
7142;SDS011;3613;48.902;9.204;2024-01-15T00:26:11;21.60;;;8.32;;
7142;SDS011;3613;48.902;9.204;2024-01-15T00:28:40;23.38;;;10.13;;
7142;SDS011;3613;48.902;9.204;2024-01-15T00:31:08;22.17;;;8.63;;
7142;SDS011;3613;48.902;9.204;2024-01-15T00:33:33;22.27;;;9.17;;
7142;SDS011;3613;48.902;9.204;2024-01-15T00:35:59;23.27;;;9.00;;
7142;SDS011;3613;48.902;9.204;2024-01-15T00:38:24;24.13;;;10.00;;
7142;SDS011;3613;48.902;9.204;2024-01-15T00:40:52;21.10;;;7.57;;
7142;SDS011;3613;48.902;9.204;2024-01-15T00:43:18;21.10;;;9.00;;
7142;SDS011;3613;48.902;9.204;2024-01-15T00:45:44;19.43;;;8.83;;
7142;SDS011;3613;48.902;9.204;2024-01-15T00:48:10;17.42;;;7.80;;
7142;SDS011;3613;48.902;9.204;2024-01-15T00:50:36;28.80;;;9.00;;
7142;SDS011;3613;48.902;9.204;2024-01-15T00:53:01;23.27;;;9.07;;
7142;SDS011;3613;48.902;9.204;2024-01-15T00:55:28;23.53;;;8.67;;
7142;SDS011;3613;48.902;9.204;2024-01-15T00:57:54;18.30;;;9.07;;
7142;SDS011;3613;48.902;9.204;2024-01-15T01:00:20;23.27;;;8.63;;
7142;SDS011;3613;48.902;9.204;2024-01-15T01:02:50;20.50;;;8.68;;
7142;SDS011;3613;48.902;9.204;2024-01-15T01:05:20;21.70;;;9.05;;
7142;SDS011;3613;48.902;9.204;2024-01-15T01:07:45;16.17;;;8.07;;
7142;SDS011;3613;48.902;9.204;2024-01-15T01:10:11;23.37;;;9.23;;
7142;SDS011;3613;48.902;9.204;2024-01-15T01:12:37;19.50;;;9.70;;
7142;SDS011;3613;48.902;9.204;2024-01-15T01:15:03;24.57;;;9.53;;
7142;SDS011;3613;48.902;9.204;2024-01-15T01:17:29;22.85;;;9.52;;
7142;SDS011;3613;48.902;9.204;2024-01-15T01:19:55;16.63;;;8.18;;
7142;SDS011;3613;48.902;9.204;2024-01-15T01:22:23;20.63;;;9.13;;
7142;SDS011;3613;48.902;9.204;2024-01-15T01:24:49;18.27;;;9.05;;
7142;SDS011;3613;48.902;9.204;2024-01-15T01:27:14;20.07;;;7.87;;
7142;SDS011;3613;48.902;9.204;2024-01-15T01:29:45;19.40;;;7.97;;
7142;SDS011;3613;48.902;9.204;2024-01-15T01:32:10;18.80;;;8.17;;
7142;SDS011;3613;48.902;9.204;2024-01-15T01:34:39;17.87;;;8.00;;
7142;SDS011;3613;48.902;9.204;2024-01-15T01:37:09;22.98;;;9.10;;
7142;SDS011;3613;48.902;9.204;2024-01-15T01:39:38;18.15;;;8.07;;
7142;SDS011;3613;48.902;9.204;2024-01-15T01:42:04;18.10;;;7.30;;
7142;SDS011;3613;48.902;9.204;2024-01-15T01:44:30;16.50;;;8.23;;
7142;SDS011;3613;48.902;9.204;2024-01-15T01:46:56;21.40;;;8.27;;
7142;SDS011;3613;48.902;9.204;2024-01-15T01:49:25;20.95;;;8.25;;
7142;SDS011;3613;48.902;9.204;2024-01-15T01:51:54;15.75;;;7.25;;
7142;SDS011;3613;48.902;9.204;2024-01-15T01:54:22;16.35;;;7.55;;
7142;SDS011;3613;48.902;9.204;2024-01-15T01:56:49;20.63;;;7.95;;
7142;SDS011;3613;48.902;9.204;2024-01-15T01:59:16;19.75;;;8.80;;
7142;SDS011;3613;48.902;9.204;2024-01-15T02:01:42;16.03;;;7.87;;
7142;SDS011;3613;48.902;9.204;2024-01-15T02:04:09;17.50;;;6.55;;
7142;SDS011;3613;48.902;9.204;2024-01-15T02:06:38;20.88;;;8.15;;
7142;SDS011;3613;48.902;9.204;2024-01-15T02:09:07;18.33;;;7.53;;
7142;SDS011;3613;48.902;9.204;2024-01-15T02:11:34;19.30;;;7.78;;
7142;SDS011;3613;48.902;9.204;2024-01-15T02:14:01;16.83;;;7.30;;
7142;SDS011;3613;48.902;9.204;2024-01-15T02:16:27;21.08;;;8.00;;
7142;SDS011;3613;48.902;9.204;2024-01-15T02:18:53;20.23;;;6.87;;
7142;SDS011;3613;48.902;9.204;2024-01-15T02:21:21;15.75;;;7.80;;
7142;SDS011;3613;48.902;9.204;2024-01-15T02:23:46;16.33;;;7.87;;
7142;SDS011;3613;48.902;9.204;2024-01-15T02:26:14;13.53;;;6.93;;
7142;SDS011;3613;48.902;9.204;2024-01-15T02:28:42;17.33;;;6.65;;
7142;SDS011;3613;48.902;9.204;2024-01-15T02:31:09;12.10;;;6.18;;
7142;SDS011;3613;48.902;9.204;2024-01-15T02:33:37;12.80;;;6.85;;
7142;SDS011;3613;48.902;9.204;2024-01-15T02:36:07;15.50;;;7.22;;
7142;SDS011;3613;48.902;9.204;2024-01-15T02:38:35;15.57;;;6.33;;
7142;SDS011;3613;48.902;9.204;2024-01-15T02:41:01;16.83;;;7.07;;
7142;SDS011;3613;48.902;9.204;2024-01-15T02:43:26;18.43;;;6.90;;
7142;SDS011;3613;48.902;9.204;2024-01-15T02:45:57;17.13;;;6.97;;
7142;SDS011;3613;48.902;9.204;2024-01-15T02:48:24;16.05;;;6.63;;
7142;SDS011;3613;48.902;9.204;2024-01-15T02:50:50;13.40;;;6.57;;
7142;SDS011;3613;48.902;9.204;2024-01-15T02:53:16;15.10;;;6.37;;
7142;SDS011;3613;48.902;9.204;2024-01-15T02:55:41;15.57;;;6.70;;
7142;SDS011;3613;48.902;9.204;2024-01-15T02:58:07;17.27;;;6.53;;
7142;SDS011;3613;48.902;9.204;2024-01-15T03:00:35;12.17;;;6.20;;
7142;SDS011;3613;48.902;9.204;2024-01-15T03:03:01;14.32;;;6.75;;
7142;SDS011;3613;48.902;9.204;2024-01-15T03:05:26;12.67;;;6.60;;
7142;SDS011;3613;48.902;9.204;2024-01-15T03:07:54;15.17;;;7.00;;
7142;SDS011;3613;48.902;9.204;2024-01-15T03:10:22;13.38;;;6.10;;
7142;SDS011;3613;48.902;9.204;2024-01-15T03:12:50;12.20;;;6.27;;
7142;SDS011;3613;48.902;9.204;2024-01-15T03:15:16;15.00;;;6.35;;
7142;SDS011;3613;48.902;9.204;2024-01-15T03:17:43;19.02;;;7.72;;
7142;SDS011;3613;48.902;9.204;2024-01-15T03:20:09;17.73;;;7.07;;
7142;SDS011;3613;48.902;9.204;2024-01-15T03:22:35;15.48;;;7.22;;
7142;SDS011;3613;48.902;9.204;2024-01-15T03:25:01;15.33;;;6.40;;
7142;SDS011;3613;48.902;9.204;2024-01-15T03:27:29;13.07;;;5.65;;
7142;SDS011;3613;48.902;9.204;2024-01-15T03:29:54;13.37;;;6.43;;
7142;SDS011;3613;48.902;9.204;2024-01-15T03:32:22;12.75;;;7.43;;
7142;SDS011;3613;48.902;9.204;2024-01-15T03:34:48;12.37;;;6.37;;
7142;SDS011;3613;48.902;9.204;2024-01-15T03:37:13;13.83;;;6.57;;
7142;SDS011;3613;48.902;9.204;2024-01-15T03:39:39;20.47;;;7.00;;
7142;SDS011;3613;48.902;9.204;2024-01-15T03:42:07;15.87;;;6.73;;
7142;SDS011;3613;48.902;9.204;2024-01-15T03:44:35;13.57;;;5.68;;
7142;SDS011;3613;48.902;9.204;2024-01-15T03:47:06;13.50;;;6.20;;
7142;SDS011;3613;48.902;9.204;2024-01-15T03:49:31;14.67;;;6.93;;
7142;SDS011;3613;48.902;9.204;2024-01-15T03:51:57;17.73;;;5.97;;
7142;SDS011;3613;48.902;9.204;2024-01-15T03:54:25;15.82;;;6.32;;
7142;SDS011;3613;48.902;9.204;2024-01-15T03:56:51;13.65;;;6.35;;
7142;SDS011;3613;48.902;9.204;2024-01-15T03:59:20;15.40;;;6.97;;
7142;SDS011;3613;48.902;9.204;2024-01-15T04:01:48;15.85;;;7.40;;
7142;SDS011;3613;48.902;9.204;2024-01-15T04:04:15;16.13;;;6.63;;
7142;SDS011;3613;48.902;9.204;2024-01-15T04:06:46;11.32;;;5.72;;
7142;SDS011;3613;48.902;9.204;2024-01-15T04:09:12;15.17;;;6.17;;
7142;SDS011;3613;48.902;9.204;2024-01-15T04:11:38;14.68;;;5.75;;
7142;SDS011;3613;48.902;9.204;2024-01-15T04:14:06;16.27;;;6.65;;
7142;SDS011;3613;48.902;9.204;2024-01-15T04:16:32;11.93;;;6.00;;
7142;SDS011;3613;48.902;9.204;2024-01-15T04:18:57;11.40;;;5.37;;
7142;SDS011;3613;48.902;9.204;2024-01-15T04:21:23;14.33;;;5.47;;
7142;SDS011;3613;48.902;9.204;2024-01-15T04:23:48;16.33;;;5.90;;
7142;SDS011;3613;48.902;9.204;2024-01-15T04:26:14;14.97;;;6.13;;
7142;SDS011;3613;48.902;9.204;2024-01-15T04:28:42;9.27;;;5.35;;
7142;SDS011;3613;48.902;9.204;2024-01-15T04:31:07;8.67;;;4.90;;
7142;SDS011;3613;48.902;9.204;2024-01-15T04:33:33;9.77;;;5.33;;
7142;SDS011;3613;48.902;9.204;2024-01-15T04:36:02;8.48;;;4.88;;
7142;SDS011;3613;48.902;9.204;2024-01-15T04:38:33;9.85;;;4.90;;
7142;SDS011;3613;48.902;9.204;2024-01-15T04:41:01;9.95;;;5.28;;
7142;SDS011;3613;48.902;9.204;2024-01-15T04:43:29;10.80;;;4.97;;
7142;SDS011;3613;48.902;9.204;2024-01-15T04:45:55;9.50;;;6.03;;
7142;SDS011;3613;48.902;9.204;2024-01-15T04:48:20;8.80;;;4.53;;
7142;SDS011;3613;48.902;9.204;2024-01-15T04:50:47;13.05;;;4.97;;
7142;SDS011;3613;48.902;9.204;2024-01-15T04:53:13;9.77;;;5.57;;
7142;SDS011;3613;48.902;9.204;2024-01-15T04:55:39;9.80;;;5.57;;
7142;SDS011;3613;48.902;9.204;2024-01-15T04:58:04;7.97;;;4.97;;
7142;SDS011;3613;48.902;9.204;2024-01-15T05:00:30;8.13;;;4.57;;
7142;SDS011;3613;48.902;9.204;2024-01-15T05:02:58;8.70;;;4.80;;
7142;SDS011;3613;48.902;9.204;2024-01-15T05:05:23;8.10;;;4.77;;
7142;SDS011;3613;48.902;9.204;2024-01-15T05:07:49;9.47;;;4.23;;
7142;SDS011;3613;48.902;9.204;2024-01-15T05:10:17;11.07;;;5.43;;
7142;SDS011;3613;48.902;9.204;2024-01-15T05:12:42;7.25;;;4.80;;
7142;SDS011;3613;48.902;9.204;2024-01-15T05:15:08;8.83;;;4.77;;
7142;SDS011;3613;48.902;9.204;2024-01-15T05:17:34;10.10;;;5.03;;
7142;SDS011;3613;48.902;9.204;2024-01-15T05:20:00;9.30;;;4.40;;
7142;SDS011;3613;48.902;9.204;2024-01-15T05:22:25;8.00;;;4.47;;
7142;SDS011;3613;48.902;9.204;2024-01-15T05:24:51;8.47;;;4.07;;
7142;SDS011;3613;48.902;9.204;2024-01-15T05:27:16;9.13;;;4.77;;
7142;SDS011;3613;48.902;9.204;2024-01-15T05:29:45;9.07;;;5.00;;
7142;SDS011;3613;48.902;9.204;2024-01-15T05:32:11;6.90;;;4.55;;
7142;SDS011;3613;48.902;9.204;2024-01-15T05:34:36;10.80;;;4.73;;
7142;SDS011;3613;48.902;9.204;2024-01-15T05:37:02;10.10;;;4.80;;
7142;SDS011;3613;48.902;9.204;2024-01-15T05:39:27;9.57;;;4.17;;
7142;SDS011;3613;48.902;9.204;2024-01-15T05:41:53;8.80;;;4.20;;
7142;SDS011;3613;48.902;9.204;2024-01-15T05:44:19;10.40;;;4.53;;
7142;SDS011;3613;48.902;9.204;2024-01-15T05:46:49;9.27;;;4.80;;
7142;SDS011;3613;48.902;9.204;2024-01-15T05:49:14;9.67;;;5.33;;
7142;SDS011;3613;48.902;9.204;2024-01-15T05:51:42;9.90;;;4.45;;
7142;SDS011;3613;48.902;9.204;2024-01-15T05:54:08;14.00;;;6.60;;
7142;SDS011;3613;48.902;9.204;2024-01-15T05:56:36;7.97;;;4.53;;
7142;SDS011;3613;48.902;9.204;2024-01-15T05:59:02;8.18;;;4.95;;
7142;SDS011;3613;48.902;9.204;2024-01-15T06:01:27;14.93;;;5.70;;
7142;SDS011;3613;48.902;9.204;2024-01-15T06:03:55;9.65;;;4.78;;
7142;SDS011;3613;48.902;9.204;2024-01-15T06:06:23;8.27;;;5.40;;
7142;SDS011;3613;48.902;9.204;2024-01-15T06:08:51;11.90;;;5.70;;
7142;SDS011;3613;48.902;9.204;2024-01-15T06:11:16;12.80;;;5.80;;
7142;SDS011;3613;48.902;9.204;2024-01-15T06:13:42;14.63;;;5.67;;
7142;SDS011;3613;48.902;9.204;2024-01-15T06:16:14;11.43;;;5.55;;
7142;SDS011;3613;48.902;9.204;2024-01-15T06:18:46;9.45;;;5.22;;
7142;SDS011;3613;48.902;9.204;2024-01-15T06:21:11;13.57;;;5.72;;
7142;SDS011;3613;48.902;9.204;2024-01-15T06:23:39;11.98;;;5.60;;
7142;SDS011;3613;48.902;9.204;2024-01-15T06:26:11;13.55;;;5.97;;
7142;SDS011;3613;48.902;9.204;2024-01-15T06:28:41;12.38;;;5.47;;
7142;SDS011;3613;48.902;9.204;2024-01-15T06:31:07;11.45;;;5.60;;
7142;SDS011;3613;48.902;9.204;2024-01-15T06:33:32;8.03;;;4.30;;
7142;SDS011;3613;48.902;9.204;2024-01-15T06:35:58;13.07;;;5.17;;
7142;SDS011;3613;48.902;9.204;2024-01-15T06:38:24;8.13;;;4.43;;
7142;SDS011;3613;48.902;9.204;2024-01-15T06:40:50;10.40;;;4.93;;
7142;SDS011;3613;48.902;9.204;2024-01-15T06:43:17;12.20;;;5.95;;
7142;SDS011;3613;48.902;9.204;2024-01-15T06:45:43;10.30;;;4.90;;
7142;SDS011;3613;48.902;9.204;2024-01-15T06:48:09;9.90;;;5.50;;
7142;SDS011;3613;48.902;9.204;2024-01-15T06:50:34;10.53;;;4.87;;
7142;SDS011;3613;48.902;9.204;2024-01-15T06:53:00;10.53;;;5.03;;
7142;SDS011;3613;48.902;9.204;2024-01-15T06:55:26;12.53;;;5.03;;
7142;SDS011;3613;48.902;9.204;2024-01-15T06:57:52;8.98;;;4.80;;
7142;SDS011;3613;48.902;9.204;2024-01-15T07:00:18;9.00;;;4.80;;
7142;SDS011;3613;48.902;9.204;2024-01-15T07:02:44;12.23;;;5.68;;
7142;SDS011;3613;48.902;9.204;2024-01-15T07:05:12;8.38;;;4.82;;
7142;SDS011;3613;48.902;9.204;2024-01-15T07:07:38;10.83;;;5.70;;
7142;SDS011;3613;48.902;9.204;2024-01-15T07:10:04;8.20;;;5.13;;
7142;SDS011;3613;48.902;9.204;2024-01-15T07:12:33;12.23;;;4.72;;
7142;SDS011;3613;48.902;9.204;2024-01-15T07:15:01;8.32;;;4.60;;
7142;SDS011;3613;48.902;9.204;2024-01-15T07:17:27;13.43;;;5.27;;
7142;SDS011;3613;48.902;9.204;2024-01-15T07:19:52;10.37;;;5.33;;
7142;SDS011;3613;48.902;9.204;2024-01-15T07:22:18;10.37;;;4.80;;
7142;SDS011;3613;48.902;9.204;2024-01-15T07:24:44;12.15;;;5.10;;
7142;SDS011;3613;48.902;9.204;2024-01-15T07:27:10;10.77;;;4.47;;
7142;SDS011;3613;48.902;9.204;2024-01-15T07:29:36;10.23;;;5.40;;
7142;SDS011;3613;48.902;9.204;2024-01-15T07:32:04;7.90;;;4.72;;
7142;SDS011;3613;48.902;9.204;2024-01-15T07:34:30;9.43;;;5.07;;
7142;SDS011;3613;48.902;9.204;2024-01-15T07:36:57;7.55;;;4.63;;
7142;SDS011;3613;48.902;9.204;2024-01-15T07:39:24;11.30;;;5.35;;
7142;SDS011;3613;48.902;9.204;2024-01-15T07:41:50;10.80;;;5.50;;
7142;SDS011;3613;48.902;9.204;2024-01-15T07:44:19;9.95;;;5.03;;
7142;SDS011;3613;48.902;9.204;2024-01-15T07:46:45;11.10;;;4.80;;
7142;SDS011;3613;48.902;9.204;2024-01-15T07:49:13;10.85;;;5.30;;
7142;SDS011;3613;48.902;9.204;2024-01-15T07:51:41;9.23;;;5.03;;
7142;SDS011;3613;48.902;9.204;2024-01-15T07:54:09;8.93;;;4.97;;
7142;SDS011;3613;48.902;9.204;2024-01-15T07:56:56;9.88;;;4.85;;
7142;SDS011;3613;48.902;9.204;2024-01-15T07:59:23;9.40;;;5.05;;
7142;SDS011;3613;48.902;9.204;2024-01-15T08:01:49;9.30;;;4.90;;
7142;SDS011;3613;48.902;9.204;2024-01-15T08:04:15;9.05;;;5.32;;
7142;SDS011;3613;48.902;9.204;2024-01-15T08:06:40;9.57;;;4.33;;
7142;SDS011;3613;48.902;9.204;2024-01-15T08:09:06;8.83;;;4.67;;
7142;SDS011;3613;48.902;9.204;2024-01-15T08:11:33;7.73;;;4.73;;
7142;SDS011;3613;48.902;9.204;2024-01-15T08:13:59;12.50;;;5.37;;
7142;SDS011;3613;48.902;9.204;2024-01-15T08:16:27;8.53;;;4.60;;
7142;SDS011;3613;48.902;9.204;2024-01-15T08:18:53;8.10;;;4.50;;
7142;SDS011;3613;48.902;9.204;2024-01-15T08:21:19;10.13;;;5.23;;
7142;SDS011;3613;48.902;9.204;2024-01-15T08:23:45;7.23;;;4.53;;
7142;SDS011;3613;48.902;9.204;2024-01-15T08:26:10;8.27;;;4.67;;
7142;SDS011;3613;48.902;9.204;2024-01-15T08:28:36;10.07;;;4.47;;
7142;SDS011;3613;48.902;9.204;2024-01-15T08:31:02;9.73;;;4.90;;
7142;SDS011;3613;48.902;9.204;2024-01-15T08:33:28;8.53;;;4.50;;
7142;SDS011;3613;48.902;9.204;2024-01-15T08:35:54;8.77;;;4.50;;
7142;SDS011;3613;48.902;9.204;2024-01-15T08:38:20;8.53;;;3.90;;
7142;SDS011;3613;48.902;9.204;2024-01-15T08:40:45;8.43;;;4.30;;
7142;SDS011;3613;48.902;9.204;2024-01-15T08:43:11;8.50;;;4.37;;
7142;SDS011;3613;48.902;9.204;2024-01-15T08:45:41;8.87;;;4.57;;
7142;SDS011;3613;48.902;9.204;2024-01-15T08:48:07;9.50;;;4.07;;
7142;SDS011;3613;48.902;9.204;2024-01-15T08:50:35;9.83;;;4.57;;
7142;SDS011;3613;48.902;9.204;2024-01-15T08:53:01;7.60;;;3.90;;
7142;SDS011;3613;48.902;9.204;2024-01-15T08:55:26;12.00;;;4.27;;
7142;SDS011;3613;48.902;9.204;2024-01-15T08:57:52;10.83;;;4.17;;
7142;SDS011;3613;48.902;9.204;2024-01-15T09:00:17;9.97;;;4.47;;
7142;SDS011;3613;48.902;9.204;2024-01-15T09:02:43;7.50;;;4.17;;
7142;SDS011;3613;48.902;9.204;2024-01-15T09:05:12;11.70;;;4.10;;
7142;SDS011;3613;48.902;9.204;2024-01-15T09:07:37;12.03;;;4.03;;
7142;SDS011;3613;48.902;9.204;2024-01-15T09:10:05;13.57;;;4.63;;
7142;SDS011;3613;48.902;9.204;2024-01-15T09:12:33;7.23;;;3.97;;
7142;SDS011;3613;48.902;9.204;2024-01-15T09:14:59;8.60;;;4.20;;
7142;SDS011;3613;48.902;9.204;2024-01-15T09:17:25;11.63;;;4.47;;
7142;SDS011;3613;48.902;9.204;2024-01-15T09:19:53;11.27;;;4.10;;
7142;SDS011;3613;48.902;9.204;2024-01-15T09:22:18;8.23;;;4.20;;
7142;SDS011;3613;48.902;9.204;2024-01-15T09:24:44;9.03;;;3.80;;
7142;SDS011;3613;48.902;9.204;2024-01-15T09:27:12;8.93;;;3.93;;
7142;SDS011;3613;48.902;9.204;2024-01-15T09:29:38;8.50;;;3.77;;
7142;SDS011;3613;48.902;9.204;2024-01-15T09:32:06;8.70;;;3.23;;
7142;SDS011;3613;48.902;9.204;2024-01-15T09:34:32;7.37;;;3.03;;
7142;SDS011;3613;48.902;9.204;2024-01-15T09:36:58;11.53;;;3.83;;
7142;SDS011;3613;48.902;9.204;2024-01-15T09:39:25;7.87;;;3.73;;
7142;SDS011;3613;48.902;9.204;2024-01-15T09:41:51;12.53;;;4.37;;
7142;SDS011;3613;48.902;9.204;2024-01-15T09:44:18;4.90;;;3.00;;
7142;SDS011;3613;48.902;9.204;2024-01-15T09:46:44;4.97;;;2.80;;
7142;SDS011;3613;48.902;9.204;2024-01-15T09:49:11;10.20;;;4.47;;
7142;SDS011;3613;48.902;9.204;2024-01-15T09:51:37;6.07;;;3.90;;
7142;SDS011;3613;48.902;9.204;2024-01-15T09:54:06;8.37;;;4.00;;
7142;SDS011;3613;48.902;9.204;2024-01-15T09:56:33;13.93;;;3.80;;
7142;SDS011;3613;48.902;9.204;2024-01-15T09:59:01;8.40;;;3.60;;
7142;SDS011;3613;48.902;9.204;2024-01-15T10:01:29;4.67;;;3.43;;
7142;SDS011;3613;48.902;9.204;2024-01-15T10:03:57;4.73;;;3.23;;
7142;SDS011;3613;48.902;9.204;2024-01-15T10:06:23;8.40;;;3.63;;
7142;SDS011;3613;48.902;9.204;2024-01-15T10:08:52;6.83;;;3.40;;
7142;SDS011;3613;48.902;9.204;2024-01-15T10:11:20;10.03;;;3.80;;
7142;SDS011;3613;48.902;9.204;2024-01-15T10:13:46;9.60;;;3.50;;
7142;SDS011;3613;48.902;9.204;2024-01-15T10:16:12;5.60;;;3.40;;
7142;SDS011;3613;48.902;9.204;2024-01-15T10:18:38;6.17;;;3.50;;
7142;SDS011;3613;48.902;9.204;2024-01-15T10:21:07;10.10;;;3.20;;
7142;SDS011;3613;48.902;9.204;2024-01-15T10:23:35;15.30;;;3.87;;
7142;SDS011;3613;48.902;9.204;2024-01-15T10:26:01;9.50;;;3.37;;
7142;SDS011;3613;48.902;9.204;2024-01-15T10:28:29;5.93;;;3.10;;
7142;SDS011;3613;48.902;9.204;2024-01-15T10:30:56;8.77;;;3.70;;
7142;SDS011;3613;48.902;9.204;2024-01-15T10:33:23;8.43;;;2.83;;
7142;SDS011;3613;48.902;9.204;2024-01-15T10:35:50;5.53;;;2.90;;
7142;SDS011;3613;48.902;9.204;2024-01-15T10:38:20;9.60;;;3.50;;
7142;SDS011;3613;48.902;9.204;2024-01-15T10:40:47;8.03;;;3.07;;
7142;SDS011;3613;48.902;9.204;2024-01-15T10:43:17;5.53;;;3.30;;
7142;SDS011;3613;48.902;9.204;2024-01-15T10:45:46;5.33;;;3.47;;
7142;SDS011;3613;48.902;9.204;2024-01-15T10:48:15;4.50;;;2.90;;
7142;SDS011;3613;48.902;9.204;2024-01-15T10:50:46;5.77;;;3.77;;
7142;SDS011;3613;48.902;9.204;2024-01-15T10:53:13;6.20;;;3.53;;
7142;SDS011;3613;48.902;9.204;2024-01-15T10:55:39;5.23;;;3.50;;
7142;SDS011;3613;48.902;9.204;2024-01-15T10:58:07;6.17;;;3.23;;
7142;SDS011;3613;48.902;9.204;2024-01-15T11:00:36;9.53;;;4.83;;
7142;SDS011;3613;48.902;9.204;2024-01-15T11:03:05;4.10;;;3.30;;
7142;SDS011;3613;48.902;9.204;2024-01-15T11:05:38;4.33;;;2.97;;
7142;SDS011;3613;48.902;9.204;2024-01-15T11:08:10;5.43;;;3.20;;
7142;SDS011;3613;48.902;9.204;2024-01-15T11:10:44;5.30;;;2.80;;
7142;SDS011;3613;48.902;9.204;2024-01-15T11:13:50;4.70;;;3.00;;
7142;SDS011;3613;48.902;9.204;2024-01-15T11:16:11;5.63;;;3.40;;
7142;SDS011;3613;48.902;9.204;2024-01-15T11:23:44;6.67;;;3.93;;
7142;SDS011;3613;48.902;9.204;2024-01-15T11:29:00;6.53;;;4.20;;
7142;SDS011;3613;48.902;9.204;2024-01-15T11:34:06;5.93;;;3.20;;
7142;SDS011;3613;48.902;9.204;2024-01-15T11:41:55;9.63;;;4.57;;
7142;SDS011;3613;48.902;9.204;2024-01-15T11:44:30;7.57;;;4.20;;
7142;SDS011;3613;48.902;9.204;2024-01-15T11:47:08;7.50;;;3.80;;
7142;SDS011;3613;48.902;9.204;2024-01-15T11:52:21;9.03;;;3.83;;
7142;SDS011;3613;48.902;9.204;2024-01-15T11:55:00;6.85;;;3.78;;
7142;SDS011;3613;48.902;9.204;2024-01-15T11:57:42;10.47;;;4.90;;
7142;SDS011;3613;48.902;9.204;2024-01-15T12:00:19;10.13;;;4.40;;
7142;SDS011;3613;48.902;9.204;2024-01-15T12:02:46;7.10;;;4.60;;
7142;SDS011;3613;48.902;9.204;2024-01-15T12:05:16;5.68;;;3.83;;
7142;SDS011;3613;48.902;9.204;2024-01-15T12:07:44;5.77;;;3.87;;
7142;SDS011;3613;48.902;9.204;2024-01-15T12:10:15;4.43;;;3.57;;
7142;SDS011;3613;48.902;9.204;2024-01-15T12:12:58;6.20;;;3.87;;
7142;SDS011;3613;48.902;9.204;2024-01-15T12:15:25;10.30;;;4.20;;
7142;SDS011;3613;48.902;9.204;2024-01-15T12:17:54;10.75;;;3.80;;
7142;SDS011;3613;48.902;9.204;2024-01-15T12:20:26;9.13;;;5.10;;
7142;SDS011;3613;48.902;9.204;2024-01-15T12:22:53;7.97;;;4.80;;
7142;SDS011;3613;48.902;9.204;2024-01-15T12:25:20;14.67;;;5.67;;
7142;SDS011;3613;48.902;9.204;2024-01-15T12:27:46;9.50;;;4.60;;
7142;SDS011;3613;48.902;9.204;2024-01-15T12:30:15;12.60;;;6.33;;
7142;SDS011;3613;48.902;9.204;2024-01-15T12:32:41;9.52;;;4.43;;
7142;SDS011;3613;48.902;9.204;2024-01-15T12:35:07;10.15;;;4.53;;
7142;SDS011;3613;48.902;9.204;2024-01-15T12:37:39;6.13;;;4.27;;
7142;SDS011;3613;48.902;9.204;2024-01-15T12:40:06;8.77;;;4.75;;
7142;SDS011;3613;48.902;9.204;2024-01-15T12:42:34;7.53;;;3.93;;
7142;SDS011;3613;48.902;9.204;2024-01-15T12:45:09;6.32;;;3.13;;
7142;SDS011;3613;48.902;9.204;2024-01-15T12:47:37;8.30;;;3.70;;
7142;SDS011;3613;48.902;9.204;2024-01-15T12:50:10;9.98;;;3.65;;
7142;SDS011;3613;48.902;9.204;2024-01-15T12:52:37;10.30;;;4.73;;
7142;SDS011;3613;48.902;9.204;2024-01-15T12:55:05;7.80;;;3.77;;
7142;SDS011;3613;48.902;9.204;2024-01-15T12:57:34;7.97;;;3.57;;
7142;SDS011;3613;48.902;9.204;2024-01-15T13:00:01;4.93;;;3.40;;
7142;SDS011;3613;48.902;9.204;2024-01-15T13:02:36;5.55;;;2.88;;
7142;SDS011;3613;48.902;9.204;2024-01-15T13:05:06;6.63;;;3.50;;
7142;SDS011;3613;48.902;9.204;2024-01-15T13:07:33;6.40;;;3.87;;
7142;SDS011;3613;48.902;9.204;2024-01-15T13:10:01;4.23;;;2.60;;
7142;SDS011;3613;48.902;9.204;2024-01-15T13:12:27;5.17;;;3.20;;
7142;SDS011;3613;48.902;9.204;2024-01-15T13:14:53;4.37;;;2.53;;
7142;SDS011;3613;48.902;9.204;2024-01-15T13:17:21;8.55;;;3.20;;
7142;SDS011;3613;48.902;9.204;2024-01-15T13:19:46;4.50;;;3.17;;
7142;SDS011;3613;48.902;9.204;2024-01-15T13:22:13;7.38;;;3.33;;
7142;SDS011;3613;48.902;9.204;2024-01-15T13:24:39;9.10;;;3.30;;
7142;SDS011;3613;48.902;9.204;2024-01-15T13:27:05;6.43;;;3.57;;
7142;SDS011;3613;48.902;9.204;2024-01-15T13:29:33;4.68;;;3.00;;
7142;SDS011;3613;48.902;9.204;2024-01-15T13:31:58;5.47;;;3.40;;
7142;SDS011;3613;48.902;9.204;2024-01-15T13:34:27;6.20;;;3.67;;
7142;SDS011;3613;48.902;9.204;2024-01-15T13:36:53;5.77;;;3.57;;
7142;SDS011;3613;48.902;9.204;2024-01-15T13:39:22;5.67;;;3.50;;
7142;SDS011;3613;48.902;9.204;2024-01-15T13:41:48;6.33;;;3.80;;
7142;SDS011;3613;48.902;9.204;2024-01-15T13:44:14;5.83;;;3.93;;
7142;SDS011;3613;48.902;9.204;2024-01-15T13:46:40;5.93;;;3.63;;
7142;SDS011;3613;48.902;9.204;2024-01-15T13:49:08;7.97;;;4.63;;
7142;SDS011;3613;48.902;9.204;2024-01-15T13:51:37;8.27;;;3.77;;
7142;SDS011;3613;48.902;9.204;2024-01-15T13:54:03;8.53;;;3.77;;
7142;SDS011;3613;48.902;9.204;2024-01-15T13:56:32;7.32;;;3.85;;
7142;SDS011;3613;48.902;9.204;2024-01-15T13:58:58;6.60;;;4.33;;
7142;SDS011;3613;48.902;9.204;2024-01-15T14:01:26;6.63;;;4.03;;
7142;SDS011;3613;48.902;9.204;2024-01-15T14:03:53;7.83;;;4.17;;
7142;SDS011;3613;48.902;9.204;2024-01-15T14:06:37;7.40;;;4.07;;
7142;SDS011;3613;48.902;9.204;2024-01-15T14:09:02;7.33;;;4.43;;
7142;SDS011;3613;48.902;9.204;2024-01-15T14:11:32;9.48;;;5.28;;
7142;SDS011;3613;48.902;9.204;2024-01-15T14:13:57;12.30;;;4.57;;
7142;SDS011;3613;48.902;9.204;2024-01-15T14:16:23;9.50;;;5.53;;
7142;SDS011;3613;48.902;9.204;2024-01-15T14:18:48;8.13;;;4.40;;
7142;SDS011;3613;48.902;9.204;2024-01-15T14:21:16;8.00;;;4.47;;
7142;SDS011;3613;48.902;9.204;2024-01-15T14:23:43;10.50;;;5.38;;
7142;SDS011;3613;48.902;9.204;2024-01-15T14:26:09;7.30;;;4.57;;
7142;SDS011;3613;48.902;9.204;2024-01-15T14:28:36;6.75;;;4.32;;
7142;SDS011;3613;48.902;9.204;2024-01-15T14:31:05;10.13;;;6.10;;
7142;SDS011;3613;48.902;9.204;2024-01-15T14:33:32;9.65;;;5.28;;
7142;SDS011;3613;48.902;9.204;2024-01-15T14:36:01;9.95;;;5.53;;
7142;SDS011;3613;48.902;9.204;2024-01-15T14:38:26;8.73;;;5.07;;
7142;SDS011;3613;48.902;9.204;2024-01-15T14:40:52;9.40;;;5.50;;
7142;SDS011;3613;48.902;9.204;2024-01-15T14:43:20;9.43;;;5.10;;
7142;SDS011;3613;48.902;9.204;2024-01-15T14:45:48;12.15;;;5.97;;
7142;SDS011;3613;48.902;9.204;2024-01-15T14:48:14;9.85;;;5.50;;
7142;SDS011;3613;48.902;9.204;2024-01-15T14:50:44;11.55;;;5.47;;
7142;SDS011;3613;48.902;9.204;2024-01-15T14:53:10;9.83;;;5.30;;
7142;SDS011;3613;48.902;9.204;2024-01-15T14:55:35;10.17;;;5.60;;
7142;SDS011;3613;48.902;9.204;2024-01-15T14:58:01;11.80;;;7.13;;
7142;SDS011;3613;48.902;9.204;2024-01-15T15:00:27;8.27;;;5.40;;
7142;SDS011;3613;48.902;9.204;2024-01-15T15:02:53;9.40;;;6.00;;
7142;SDS011;3613;48.902;9.204;2024-01-15T15:05:21;10.77;;;6.40;;
7142;SDS011;3613;48.902;9.204;2024-01-15T15:07:47;11.15;;;6.78;;
7142;SDS011;3613;48.902;9.204;2024-01-15T15:10:12;12.83;;;7.20;;
7142;SDS011;3613;48.902;9.204;2024-01-15T15:12:38;10.87;;;6.30;;
7142;SDS011;3613;48.902;9.204;2024-01-15T15:15:04;14.67;;;6.43;;
7142;SDS011;3613;48.902;9.204;2024-01-15T15:17:32;11.30;;;6.50;;
7142;SDS011;3613;48.902;9.204;2024-01-15T15:20:12;10.52;;;5.88;;
7142;SDS011;3613;48.902;9.204;2024-01-15T15:22:38;11.05;;;6.45;;
7142;SDS011;3613;48.902;9.204;2024-01-15T15:25:07;12.65;;;6.47;;
7142;SDS011;3613;48.902;9.204;2024-01-15T15:27:37;9.25;;;6.35;;